Time;durP1;ratioP1;P1;durP2;ratioP2;P2;SDS_P1;SDS_P2;PMS_P1;PMS_P2;Temp;Humidity;BMP_temperature;BMP_pressure;BME280_temperature;BME280_humidity;BME280_pressure;Samples;Min_cycle;Max_cycle;Signal;HPM_P1;HPM_P2
2022/09/20 00:01:22;;;;;;;15.17;5.87;;;;;;;11.01;100.00;102117.50;5051177;28;20033;-85
2022/09/20 00:03:51;;;;;;;12.03;5.60;;;;;;;11.01;100.00;102118.31;5039224;28;20032;-86
2022/09/20 00:06:18;;;;;;;11.47;5.70;;;;;;;10.98;100.00;102119.53;5051334;28;20036;-86
2022/09/20 00:08:45;;;;;;;12.33;5.90;;;;;;;11.00;100.00;102113.06;5050058;28;20472;-87
2022/09/20 00:11:16;;;;;;;9.73;6.10;;;;;;;10.95;100.00;102119.06;5049913;28;20468;-86
2022/09/20 00:13:43;;;;;;;13.37;6.53;;;;;;;10.97;100.00;102125.13;5050726;28;20025;-87
2022/09/20 00:16:15;;;;;;;14.83;6.33;;;;;;;10.92;100.00;102114.84;5050631;28;20057;-86
2022/09/20 00:18:40;;;;;;;15.13;6.50;;;;;;;10.95;100.00;102117.19;5049518;28;20051;-85
2022/09/20 00:21:06;;;;;;;15.53;6.60;;;;;;;10.90;100.00;102106.03;5051264;28;20040;-85
2022/09/20 00:23:32;;;;;;;16.90;6.40;;;;;;;10.84;100.00;102101.38;5049858;28;20044;-87
2022/09/20 00:26:03;;;;;;;16.23;6.83;;;;;;;10.85;100.00;102113.88;5050323;28;20460;-86
2022/09/20 00:28:28;;;;;;;14.37;6.73;;;;;;;10.85;100.00;102107.63;5050219;28;20614;-86
2022/09/20 00:30:55;;;;;;;16.27;7.07;;;;;;;10.82;100.00;102108.81;5050472;28;20060;-86
2022/09/20 00:33:22;;;;;;;16.30;7.17;;;;;;;10.82;100.00;102119.66;5050556;28;20103;-85
2022/09/20 00:35:48;;;;;;;14.07;6.40;;;;;;;10.78;100.00;102107.50;5049042;28;20592;-86
2022/09/20 00:38:14;;;;;;;13.03;6.67;;;;;;;10.77;100.00;102112.09;5049874;28;20037;-86
2022/09/20 00:40:41;;;;;;;14.60;6.97;;;;;;;10.81;100.00;102131.53;5050091;28;20123;-85
2022/09/20 00:43:09;;;;;;;15.43;6.77;;;;;;;10.78;100.00;102127.34;5049873;28;20044;-85
2022/09/20 00:45:35;;;;;;;16.97;7.50;;;;;;;10.75;100.00;102121.44;5049550;28;20040;-86
2022/09/20 00:48:08;;;;;;;15.60;6.97;;;;;;;10.78;100.00;102130.06;5033953;28;20075;-86
2022/09/20 00:50:43;;;;;;;13.63;7.13;;;;;;;10.77;100.00;102135.63;5049595;28;20129;-85
2022/09/20 00:53:26;;;;;;;14.33;6.70;;;;;;;10.73;100.00;102131.59;5050468;28;20531;-86
2022/09/20 00:56:02;;;;;;;13.83;7.10;;;;;;;10.70;100.00;102130.09;5049707;28;20044;-86
2022/09/20 00:58:31;;;;;;;17.77;7.43;;;;;;;10.66;100.00;102128.75;5049357;28;20028;-86
2022/09/20 01:00:58;;;;;;;13.30;7.43;;;;;;;10.66;100.00;102136.06;5049091;28;20177;-86
2022/09/20 01:03:30;;;;;;;16.57;7.20;;;;;;;10.59;100.00;102125.97;5050060;28;20024;-87
2022/09/20 01:05:58;;;;;;;15.00;7.33;;;;;;;10.55;100.00;102127.34;5049155;28;20036;-87
2022/09/20 01:08:24;;;;;;;17.73;7.80;;;;;;;10.57;100.00;102128.00;5052346;28;20036;-87
2022/09/20 01:10:51;;;;;;;17.63;7.90;;;;;;;10.54;100.00;102128.38;5049299;28;20393;-86
2022/09/20 01:13:16;;;;;;;14.43;7.47;;;;;;;10.60;100.00;102135.75;5050362;28;20041;-87
2022/09/20 01:15:45;;;;;;;16.90;7.47;;;;;;;10.59;100.00;102133.22;5048369;28;20058;-86
2022/09/20 01:18:12;;;;;;;16.43;7.63;;;;;;;10.56;100.00;102125.47;5049863;28;20032;-86
2022/09/20 01:20:41;;;;;;;16.47;7.27;;;;;;;10.59;100.00;102138.66;5049069;28;20040;-85
2022/09/20 01:23:17;;;;;;;15.23;7.50;;;;;;;10.60;100.00;102124.91;5049511;28;20440;-85
2022/09/20 01:26:21;;;;;;;15.70;7.40;;;;;;;10.64;100.00;102131.66;5049099;28;20025;-86
2022/09/20 01:28:48;;;;;;;16.27;7.27;;;;;;;10.57;100.00;102119.03;5049140;28;20725;-86
2022/09/20 01:31:25;;;;;;;14.53;6.87;;;;;;;10.63;100.00;102124.56;5037403;28;20373;-85
2022/09/20 01:34:12;;;;;;;14.73;7.10;;;;;;;10.66;100.00;102128.75;5049177;28;20118;-86
2022/09/20 01:36:53;;;;;;;15.93;7.40;;;;;;;10.62;100.00;102131.00;5049042;28;20058;-87
2022/09/20 01:39:49;;;;;;;15.73;7.20;;;;;;;10.63;100.00;102124.56;5050280;28;20040;-86
2022/09/20 01:42:14;;;;;;;15.57;7.20;;;;;;;10.63;100.00;102130.00;5049837;28;20033;-85
2022/09/20 01:44:51;;;;;;;16.00;7.40;;;;;;;10.61;100.00;102121.19;5048589;28;20036;-85
2022/09/20 01:47:31;;;;;;;14.10;6.30;;;;;;;10.61;100.00;102121.19;5048946;28;20047;-85
2022/09/20 01:50:12;;;;;;;15.43;6.30;;;;;;;10.64;100.00;102123.53;5038124;28;20407;-86
2022/09/20 01:53:13;;;;;;;14.50;6.53;;;;;;;10.64;100.00;102123.53;5049054;28;20473;-85
2022/09/20 01:55:53;;;;;;;13.23;6.53;;;;;;;10.66;100.00;102125.22;5048498;28;20111;-87
2022/09/20 01:58:49;;;;;;;12.10;6.17;;;;;;;10.66;100.00;102125.22;5048707;28;20691;-86
2022/09/20 02:01:27;;;;;;;11.93;5.73;;;;;;;10.66;100.00;102130.66;5048038;28;20127;-86
2022/09/20 02:04:14;;;;;;;14.30;5.50;;;;;;;10.67;100.00;102130.47;5048153;28;20032;-87
2022/09/20 02:07:24;;;;;;;15.40;5.97;;;;;;;10.68;100.00;102134.88;5048837;28;20040;-87
2022/09/20 02:10:14;;;;;;;12.00;5.17;;;;;;;10.64;100.00;102125.41;5047428;28;20028;-87
2022/09/20 02:12:55;;;;;;;12.60;5.60;;;;;;;10.61;100.00;102125.78;5048458;28;20094;-85
2022/09/20 02:15:51;;;;;;;12.30;5.70;;;;;;;10.62;100.00;102122.88;5047853;28;20367;-85
2022/09/20 02:18:31;;;;;;;14.17;5.50;;;;;;;10.60;100.00;102124.91;5048306;28;20033;-84
2022/09/20 02:21:24;;;;;;;13.47;5.40;;;;;;;10.60;100.00;102130.34;5047729;28;20310;-87
2022/09/20 02:24:08;;;;;;;12.97;5.27;;;;;;;10.60;100.00;102122.19;5047772;28;20033;-86
2022/09/20 02:27:01;;;;;;;12.10;5.27;;;;;;;10.63;100.00;102118.28;5047745;28;20041;-85
2022/09/20 02:29:35;;;;;;;12.63;5.40;;;;;;;10.61;100.00;102114.94;5049582;28;20115;-86
2022/09/20 02:32:31;;;;;;;10.00;4.82;;;;;;;10.64;100.00;102119.97;5047056;28;20472;-86
2022/09/20 02:35:15;;;;;;;;;;;;;;;10.71;100.00;102112.81;5048633;28;20041;-86
2022/09/20 02:38:11;;;;;;;12.00;5.20;;;;;;;10.59;100.00;102108.84;5047654;28;19928;-85
2022/09/20 02:40:46;;;;;;;10.37;4.77;;;;;;;10.62;100.00;102112.03;5047039;28;20355;-85
2022/09/20 02:43:29;;;;;;;;;;;;;;;10.71;100.00;102111.97;5048595;28;20028;-85
2022/09/20 02:46:16;;;;;;;13.07;5.70;;;;;;;10.62;100.00;102111.19;5047663;28;19920;-87
2022/09/20 02:48:48;;;;;;;11.07;4.77;;;;;;;10.53;100.00;102102.28;5047746;28;20182;-86
2022/09/20 02:51:29;;;;;;;11.63;5.10;;;;;;;10.57;100.00;102114.44;5047561;28;21198;-86
2022/09/20 02:54:14;;;;;;;12.70;4.90;;;;;;;10.56;100.00;102106.50;5045839;28;20044;-86
2022/09/20 02:56:52;;;;;;;;;;;;;;;10.69;100.00;102111.28;5046965;28;20045;-85
2022/09/20 02:59:26;;;;;;;;;;;;;;;10.69;100.00;102111.28;5050568;28;20378;-86
2022/09/20 03:02:14;;;;;;;;;;;;;;;10.70;100.00;102110.28;5047155;28;20309;-85
2022/09/20 03:05:03;;;;;;;;;;;;;;;10.71;100.00;102109.25;5047732;28;19925;-86
2022/09/20 03:07:34;;;;;;;;;;;;;;;10.73;100.00;102115.34;5047789;28;19977;-89
2022/09/20 03:10:34;;;;;;;;;;;;;;;10.73;100.00;102118.03;5063457;28;19927;-86
2022/09/20 03:13:18;;;;;;;;;;;;;;;10.73;100.00;102118.91;5045854;28;20557;-86
2022/09/20 03:15:53;;;;;;;;;;;;;;;10.75;100.00;102116.00;5034011;28;19986;-88
2022/09/20 03:18:25;;;;;;;;;;;;;;;10.78;100.00;102123.78;5047322;28;19925;-85
2022/09/20 03:20:57;;;;;;;;;;;;;;;10.80;100.00;102110.88;5047493;28;19920;-87
2022/09/20 03:23:25;;;;;;;;;;;;;;;10.84;100.00;102114.91;5047888;28;19921;-86
2022/09/20 03:26:11;;;;;;;;;;;;;;;10.87;100.00;102111.84;5048469;28;20400;-86
2022/09/20 03:28:43;;;;;;;;;;;;;;;10.90;100.00;102122.31;5051638;28;19924;-86
2022/09/20 03:31:23;;;;;;;;;;;;;;;10.91;100.00;102121.28;5052224;28;20356;-85
2022/09/20 03:33:49;;;;;;;;;;;;;;;10.91;100.00;102121.28;5051868;28;19931;-86
2022/09/20 03:36:23;;;;;;;;;;;;;;;10.91;100.00;102118.56;5052237;28;19920;-86
2022/09/20 03:39:06;;;;;;;;;;;;;;;10.90;100.00;102119.59;5049261;28;20356;-87
2022/09/20 03:41:50;;;;;;;;;;;;;;;10.91;100.00;102129.44;5052284;28;19925;-86
2022/09/20 03:44:25;;;;;;;;;;;;;;;10.91;100.00;102121.28;5050994;28;19968;-85
2022/09/20 03:46:59;;;;;;;;;;;;;;;10.90;100.00;102127.72;5051307;28;19929;-85
2022/09/20 03:49:40;;;;;;;;;;;;;;;10.90;100.00;102119.59;5053268;28;19925;-84
2022/09/20 03:52:18;;;;;;;;;;;;;;;10.91;100.00;102121.28;5051560;28;19920;-84
2022/09/20 03:54:52;;;;;;;;;;;;;;;10.89;100.00;102115.22;5034540;28;19972;-83
2022/09/20 03:57:17;;;;;;;;;;;;;;;10.92;100.00;102114.00;5052221;28;20382;-85
2022/09/20 03:59:46;;;;;;;;;;;;;;;10.93;100.00;102121.09;5051184;28;19920;-86
2022/09/20 04:02:14;;;;;;;;;;;;;;;10.92;100.00;102112.13;5051593;28;19985;-84
2022/09/20 04:04:51;;;;;;;;;;;;;;;10.96;100.00;102112.59;5050115;28;21295;-86
2022/09/20 04:07:27;;;;;;;;;;;;;;;10.96;100.00;102118.88;5052037;28;19956;-85
2022/09/20 04:10:01;;;;;;;;;;;;;;;10.98;100.00;102115.97;5050890;28;19924;-87
2022/09/20 04:12:46;;;;;;;;;;;;;;;10.97;100.00;102115.16;5051170;28;20023;-85
2022/09/20 04:15:11;;;;;;;;;;;;;;;10.97;100.00;102115.16;5050882;28;19920;-85
2022/09/20 04:18:12;;;;;;;;;;;;;;;10.98;100.00;102121.41;5050875;28;20570;-86
2022/09/20 04:20:49;;;;;;;;;;;;;;;10.99;100.00;102117.66;5028158;28;20010;-86
2022/09/20 04:23:34;;;;;;;;;;;;;;;11.00;100.00;102115.78;5048240;28;19931;-86
2022/09/20 04:26:01;;;;;;;;;;;;;;;10.98;100.00;102115.97;5042858;28;19952;-87
2022/09/20 04:28:29;;;;;;;;;;;;;;;10.98;100.00;102114.09;5049640;28;20387;-85
2022/09/20 04:30:58;;;;;;;;;;;;;;;10.98;100.00;102110.56;5050585;28;19928;-85
2022/09/20 04:33:26;;;;;;;;;;;;;;;11.00;100.00;102115.78;5050897;28;20031;-86
2022/09/20 04:38:54;;;;;;;;;;;;;;;11.01;100.00;102121.03;5050899;28;20480;-87
2022/09/20 04:41:33;;;;;;;;;;;;;;;11.02;100.00;102121.91;5050670;28;20641;-85
2022/09/20 04:44:01;;;;;;;;;;;;;;;11.04;100.00;102125.25;5049662;28;20323;-86
2022/09/20 04:46:34;;;;;;;;;;;;;;;11.06;100.00;102129.47;5050971;28;19930;-87
2022/09/20 04:49:18;;;;;;;;;;;;;;;11.06;100.00;102128.63;5049429;28;20412;-86
2022/09/20 04:51:43;;;;;;;;;;;;;;;11.05;100.00;102132.38;5050354;28;19925;-86
2022/09/20 04:54:12;;;;;;;;;;;;;;;11.08;100.00;102126.56;5050139;28;19929;-86
2022/09/20 04:56:46;;;;;;;;;;;;;;;11.09;100.00;102128.25;5050195;28;19924;-87
2022/09/20 04:59:30;;;;;;;;;;;;;;;11.10;100.00;102135.38;5050149;28;19920;-86
2022/09/20 05:02:06;;;;;;;;;;;;;;;11.10;100.00;102138.91;5050829;28;19971;-86
2022/09/20 05:04:49;;;;;;;;;;;;;;;11.12;100.00;102138.72;5050094;28;20016;-87
2022/09/20 05:07:18;;;;;;;;;;;;;;;11.12;100.00;102136.88;5050783;28;19924;-86
2022/09/20 05:09:49;;;;;;;;;;;;;;;11.11;100.00;102143.31;5048272;28;19952;-87
2022/09/20 05:12:44;;;;;;;;;;;;;;;11.10;100.00;102136.22;5050853;28;20229;-87
2022/09/20 05:15:22;;;;;;;;;;;;;;;11.07;100.00;102142.00;5044738;28;19952;-87
2022/09/20 05:18:06;;;;;;;;;;;;;;;11.03;100.00;102134.41;5049555;28;19924;-87
2022/09/20 05:20:51;;;;;;;;;;;;;;;10.96;100.00;102137.88;5049957;28;19932;-87
2022/09/20 05:23:16;;;;;;;;;;;;;;;10.92;100.00;102139.25;5049918;28;19920;-87
2022/09/20 05:25:50;;;;;;;;;;;;;;;10.88;100.00;102137.94;5048757;28;20079;-87
2022/09/20 05:28:34;;;;;;;;;;;;;;;10.85;100.00;102143.69;5050275;28;19916;-87
2022/09/20 05:31:13;;;;;;;;;;;;;;;10.81;100.00;102143.25;5049325;28;20319;-87
2022/09/20 05:33:57;;;;;;;;;;;;;;;10.79;100.00;102147.16;5049339;28;19927;-87
2022/09/20 05:36:23;;;;;;;;;;;;;;;10.76;100.00;102151.06;5049776;28;20369;-87
2022/09/20 05:38:51;;;;;;;;;;;;;;;10.74;100.00;102154.97;5049686;28;19979;-87
2022/09/20 05:41:35;;;;;;;;;;;;;;;10.73;100.00;102162.28;5049658;28;19937;-87
2022/09/20 05:44:06;;;;;;;;;;;;;;;10.72;100.00;102159.75;5050039;28;20005;-86
2022/09/20 05:46:44;;;;;;;;;;;;;;;10.72;100.00;102165.19;5049773;28;20386;-86
2022/09/20 05:49:21;;;;;;;;;;;;;;;10.75;100.00;102168.34;5048343;28;19939;-85
2022/09/20 05:52:07;;;;;;;;;;;;;;;10.75;100.00;102165.63;5049054;28;19956;-87
2022/09/20 05:54:53;;;;;;;;;;;;;;;10.77;100.00;102173.59;5048638;28;19928;-85
2022/09/20 05:57:40;;;;;;;;;;;;;;;10.79;100.00;102174.25;5049263;28;20423;-86
2022/09/20 06:00:25;;;;;;;;;;;;;;;10.83;100.00;102175.59;5048955;28;20031;-86
2022/09/20 06:03:16;;;;;;;;;;;;;;;10.87;100.00;102173.38;5049281;28;20025;-87
2022/09/20 06:05:45;;;;;;;;;;;;;;;10.93;100.00;102175.34;5048655;28;19916;-87
2022/09/20 06:08:25;;;;;;;;;;;;;;;10.96;100.00;102174.97;5048845;28;19924;-86
2022/09/20 06:11:13;;;;;;;;;;;;;;;11.00;100.00;102175.47;5063790;28;20028;-86
2022/09/20 06:14:00;;;;;;;;;;;;;;;11.02;100.00;102182.38;5048376;28;19926;-86
2022/09/20 06:16:34;;;;;;;;;;;;;;;11.07;100.00;102187.25;5008695;28;19931;-86
2022/09/20 06:19:19;;;;;;;;;;;;;;;11.08;100.00;102186.22;5048888;28;19982;-86
2022/09/20 06:21:52;;;;;;;;;;;;;;;11.09;100.00;102193.34;5047986;28;20043;-86
2022/09/20 06:24:22;;;;;;;;;;;;;;;11.09;100.00;102194.19;5048132;28;20015;-87
2022/09/20 06:26:49;;;;;;;;;;;;;;;11.11;100.00;102196.72;5047926;28;19926;-86
2022/09/20 06:29:16;;;;;;;;;;;;;;;11.13;100.00;102198.22;5047162;28;19924;-86
2022/09/20 06:31:41;;;;;;;;;;;;;;;11.14;100.00;102191.78;5048788;28;20410;-86
2022/09/20 06:34:09;;;;;;;;;;;;;;;11.16;100.00;102197.00;5048504;28;19968;-86
2022/09/20 06:42:09;;;;;;;;;;;;;;;11.25;100.00;102193.22;5064292;28;19959;-86
2022/09/20 06:44:38;;;;;;;;;;;;;;;11.28;100.00;102195.53;5051352;28;19959;-86
2022/09/20 06:47:07;;;;;;;;;;;;;;;11.32;100.00;102199.56;5066935;28;19967;-85
2022/09/20 06:49:34;;;;;;;;;;;;;;;11.37;100.00;102193.63;5050509;28;19925;-86
2022/09/20 06:52:00;;;;;;;;;;;;;;;11.41;100.00;102196.78;5051927;28;19920;-86
2022/09/20 06:54:25;;;;;;;;;;;;;;;11.47;100.00;102198.78;5051623;28;19932;-86
2022/09/20 06:56:51;;;;;;;;;;;;;;;11.51;100.00;102194.66;5051966;28;19978;-86
2022/09/20 06:59:16;;;;;;;;;;;;;;;11.55;100.00;102201.41;5050960;28;20576;-85
2022/09/20 07:01:41;;;;;;;;;;;;;;;11.58;100.00;102202.91;5051714;28;20376;-85
2022/09/20 07:04:08;;;;;;;;;;;;;;;11.60;100.00;102192.69;5052042;28;20250;-86
2022/09/20 07:06:33;;;;;;;;;;;;;;;11.61;100.00;102202.53;5052421;28;20050;-86
2022/09/20 07:08:58;;;;;;;;;;;;;;;11.61;100.00;102200.69;5029289;28;19932;-86
2022/09/20 07:11:24;;;;;;;;;;;;;;;11.66;100.00;102210.97;5051660;28;20476;-86
2022/09/20 07:13:51;;;;;;;;;;;;;;;11.68;100.00;102199.94;5050609;28;19928;-85
2022/09/20 07:16:16;;;;;;;;;;;;;;;11.78;100.00;102206.78;5051480;28;19925;-85
2022/09/20 07:18:41;;;;;;;;;;;;;;;11.87;100.00;102204.81;5050910;28;19920;-86
2022/09/20 07:21:11;;;;;;;;;;;;;;;12.02;100.00;102212.97;5051987;28;19920;-86
2022/09/20 07:23:36;;;;;;;;;;;;;;;12.14;100.00;102206.06;5050504;28;19928;-86
2022/09/20 07:26:01;;;;;;;;;;;;;;;12.27;100.00;102210.81;5055370;28;19921;-86
2022/09/20 07:28:27;;;;;;;;;;;;;;;12.38;100.00;102214.09;5066613;28;19931;-86
2022/09/20 07:30:53;;;;;;;;;;;;;;;12.46;100.00;102208.53;5059289;28;19924;-85
2022/09/20 07:33:20;;;;;;;;;;;;;;;12.59;100.00;102216.00;5056284;28;19917;-86
2022/09/20 07:35:48;;;;;;;;;;;;;;;12.69;100.00;102227.41;5057075;28;19925;-86
2022/09/20 07:38:14;;;;;;;;;;;;;;;12.81;100.00;102220.44;5057964;28;19999;-86
2022/09/20 07:40:39;;;;;;;;;;;;;;;12.94;99.41;102213.44;5057490;28;20015;-86
2022/09/20 07:43:04;;;;;;;;;;;;;;;13.03;99.27;102227.75;5061247;28;20364;-86
2022/09/20 07:45:30;;;;;;;;;;;;;;;13.15;98.93;102223.47;5056612;28;19920;-86
2022/09/20 07:47:57;;;;;;;;;;;;;;;13.28;99.88;102226.31;5059245;28;19935;-86
2022/09/20 07:50:22;;;;;;;;;;;;;;;13.44;98.51;102224.38;5054909;28;19912;-86
2022/09/20 07:52:47;;;;;;;;;;;;;;;13.59;99.06;102235.19;5058426;28;19970;-86
2022/09/20 07:55:12;;;;;;;;;;;;;;;13.69;97.11;102232.94;5059163;28;19929;-86
2022/09/20 07:57:38;;;;;;;;;;;;;;;13.74;97.13;102232.34;5056263;28;20082;-85
2022/09/20 08:00:04;;;;;;;;;;;;;;;13.78;96.28;102237.19;5055716;28;20006;-86
2022/09/20 08:02:30;;;;;;;;;;;;;;;13.84;92.78;102239.13;5054615;28;20352;-86
2022/09/20 08:04:55;;;;;;;;;;;;;;;14.02;95.41;102235.88;5074843;28;19958;-86
2022/09/20 08:07:20;;;;;;;;;;;;;;;14.14;96.29;102238.03;5056554;28;19963;-85
2022/09/20 08:09:45;;;;;;;;;;;;;;;14.31;95.44;102235.81;5060485;28;19948;-85
2022/09/20 08:12:12;;;;;;;;;;;;;;;14.46;94.20;102235.69;5073342;28;19960;-85
2022/09/20 08:14:37;;;;;;;;;;;;;;;14.67;97.32;102237.44;5061795;28;19920;-86
2022/09/20 08:17:03;;;;;;;;;;;;;;;14.80;93.73;102233.94;5061203;28;19923;-86
2022/09/20 08:19:29;;;;;;;;;;;;;;;14.98;91.50;102236.88;5061456;28;19935;-86
2022/09/20 08:21:54;;;;;;;;;;;;;;;15.14;89.76;102227.47;5063136;28;19924;-87
2022/09/20 08:24:20;;;;;;;;;;;;;;;15.39;93.44;102229.56;5061288;28;19929;-86
2022/09/20 08:26:45;;;;;;;;;;;;;;;15.50;86.17;102244.50;5063685;28;19912;-86
2022/09/20 08:29:11;;;;;;;;;;;;;;;15.62;86.19;102237.34;5059097;28;19932;-86
2022/09/20 08:31:39;;;;;;;;;;;;;;;15.78;93.08;102236.06;5062457;28;19974;-86
2022/09/20 08:34:08;;;;;;;;;;;;;;;15.93;91.14;102241.31;5059939;28;20245;-87
2022/09/20 08:36:34;;;;;;;;;;;;;;;16.04;84.34;102239.81;5062018;28;19924;-86
2022/09/20 08:39:00;;;;;;;;;;;;;;;16.24;90.80;102249.84;5057662;28;19909;-86
2022/09/20 08:41:25;;;;;;;;;;;;;;;16.25;82.75;102257.88;5060573;28;19924;-86
2022/09/20 08:43:53;;;;;;;;;;;;;;;16.27;80.16;102258.47;5056141;28;19919;-87
2022/09/20 08:46:21;;;;;;;;;;;;;;;16.29;77.39;102264.59;5050810;28;19932;-85
2022/09/20 08:48:47;;;;;;;;;;;;;;;16.33;80.66;102260.34;5050576;28;19924;-86
2022/09/20 08:51:14;;;;;;;;;;;;;;;16.48;87.09;102268.28;5055835;28;19955;-85
2022/09/20 08:53:45;;;;;;;;;;;;;;;16.65;82.53;102265.06;5065607;28;19973;-86
2022/09/20 08:56:10;;;;;;;;;;;;;;;16.83;73.65;102267.06;5050220;28;20307;-85
2022/09/20 08:58:36;;;;;;;;;;;;;;;17.08;82.52;102261.69;5050933;28;19920;-86
2022/09/20 09:01:02;;;;;;;;;;;;;;;17.17;79.61;102267.72;5050853;28;19924;-86
2022/09/20 09:03:27;;;;;;;;;;;;;;;17.26;78.45;102268.28;5050438;28;19945;-87
2022/09/20 09:05:53;;;;;;;;;;;;;;;17.35;72.17;102266.97;5030613;28;19960;-87
2022/09/20 09:08:20;;;;;;;;;;;;;;;17.42;79.01;102267.78;5031395;28;19981;-86
2022/09/20 09:10:56;;;;;;;;;;;;;;;17.36;70.90;102266.72;5051097;28;19925;-87
2022/09/20 09:13:47;;;;;;;;;;;;;;;17.23;71.13;102261.38;5050540;28;19954;-86
2022/09/20 09:16:14;;;;;;;;;;;;;;;16.93;69.98;102264.75;5022239;28;19924;-87
2022/09/20 09:18:40;;;;;;;;;;;;;;;16.66;71.46;102269.50;5050256;28;19981;-86
2022/09/20 09:21:07;;;;;;;;;;;;;;;16.45;71.57;102267.88;5049235;28;19932;-85
2022/09/20 09:23:40;;;;;;;;;;;;;;;16.20;69.34;102263.97;5050496;28;19990;-86
2022/09/20 09:26:13;;;;;;;;;;;;;;;16.17;73.01;102266.31;5049877;28;21290;-86
2022/09/20 09:28:38;;;;;;;;;;;;;;;16.03;67.69;102271.81;5048840;28;19927;-85
2022/09/20 09:31:24;;;;;;;;;;;;;;;16.03;71.51;102266.34;5049945;28;19917;-86
2022/09/20 09:33:50;;;;;;;;;;;;;;;16.00;69.95;102269.47;5049210;28;20411;-86
2022/09/20 09:36:19;;;;;;;;;;;;;;;16.02;73.04;102270.13;5049953;28;19928;-86
2022/09/20 09:38:45;;;;;;;;;;;;;;;15.66;68.98;102281.47;5049036;28;20510;-86
2022/09/20 09:41:19;;;;;;;;;;;;;;;15.57;70.88;102278.13;5048945;28;19987;-86
2022/09/20 09:43:55;;;;;;;;;;;;;;;15.52;71.28;102275.19;5049255;28;20300;-86
2022/09/20 09:46:22;;;;;;;;;;;;;;;15.44;70.05;102276.22;5031677;28;20403;-87
2022/09/20 09:49:07;;;;;;;;;;;;;;;15.29;71.12;102287.34;5055799;28;20018;-86
2022/09/20 09:51:34;;;;;;;;;;;;;;;15.26;73.16;102285.03;5056115;28;20295;-85
2022/09/20 09:53:59;;;;;;;;;;;;;;;15.10;73.47;102288.16;5054446;28;19923;-87
2022/09/20 09:56:27;;;;;;;;;;;;;;;14.89;74.83;102286.41;5057353;28;19912;-84
2022/09/20 09:59:11;;;;;;;;;;;;;;;14.69;76.83;102287.19;5056687;28;20370;-85
2022/09/20 10:01:40;;;;;;;;;;;;;;;14.18;79.80;102285.66;5053913;28;19935;-85
2022/09/20 10:04:05;;;;;;;;;;;;;;;14.18;81.82;102282.94;5072007;28;19912;-87
2022/09/20 10:06:51;;;;;;;;;;;;;;;14.12;80.76;102284.56;5072057;28;19935;-85
2022/09/20 10:09:35;;;;;;;;;;;;;;;14.24;80.59;102290.31;5048317;28;19924;-86
2022/09/20 10:12:00;;;;;;;;;;;;;;;14.34;80.19;102292.66;5048601;28;19982;-85
2022/09/20 10:14:37;;;;;;;;;;;;;;;14.36;80.19;102290.59;5048820;28;19925;-86
2022/09/20 10:17:30;;;;;;;;;;;;;;;14.49;81.76;102287.06;5049053;28;19924;-85
2022/09/20 10:20:04;;;;;;;;;;;;;;;14.77;79.23;102280.69;5048757;28;21227;-86
2022/09/20 10:22:39;;;;;;;;;;;;;;;15.09;79.65;102272.81;5048196;28;20022;-86
2022/09/20 10:25:19;;;;;;;;;;;;;;;15.28;74.01;102280.19;5048493;28;20537;-85
2022/09/20 10:27:55;;;;;;;;;;;;;;;15.40;75.64;102266.75;5048843;28;19924;-86
2022/09/20 10:30:27;;;;;;;;;;;;;;;15.62;72.45;102280.22;5048853;28;19931;-87
2022/09/20 10:33:11;;;;;;;;;;;;;;;15.71;72.66;102284.41;5050322;28;20352;-86
2022/09/20 10:35:55;;;;;;;;;;;;;;;15.88;70.69;102282.09;5047772;28;20013;-87
2022/09/20 10:38:30;;;;;;;;;;;;;;;15.96;72.19;102281.88;5047847;28;20007;-86
2022/09/20 10:43:55;;;;;;;;;;;;;;;16.47;69.89;102287.63;5046918;28;19931;-86
2022/09/20 10:46:26;;;;;;;;;;;;;;;16.66;66.28;102281.25;5062651;28;20261;-85
2022/09/20 10:49:00;;;;;;;;;;;;;;;16.79;70.94;102282.25;5047261;28;19924;-86
2022/09/20 10:52:01;;;;;;;;;;;;;;;16.59;66.31;102282.34;5047102;28;19920;-87
2022/09/20 10:54:42;;;;;;;;;;;;;;;16.48;64.98;102283.84;4964867;28;19921;-85
2022/09/20 10:57:19;;;;;;;;;;;;;;;16.26;65.66;102278.66;5037948;28;19931;-86
2022/09/20 10:59:53;;;;;;;;;;;;;;;16.15;66.38;102291.09;5027930;28;20027;-86
2022/09/20 11:02:19;;;;;;;;;;;;;;;16.24;68.06;102290.88;5047390;28;19924;-85
2022/09/20 11:05:11;;;;;;;;;;;;;;;16.12;64.59;102286.06;5045526;28;19923;-86
2022/09/20 11:07:39;;;;;;;;;;;;;;;16.18;66.37;102290.69;5047761;28;19924;-86
2022/09/20 11:10:19;;;;;;;;;;;;;;;16.25;64.51;102296.16;5047205;28;19977;-84
2022/09/20 11:12:52;;;;;;;;;;;;;;;16.35;63.36;102298.44;5046866;28;20008;-85
2022/09/20 11:15:24;;;;;;;;;;;;;;;16.35;65.40;102293.78;5045223;28;20026;-86
2022/09/20 11:17:58;;;;;;;;;;;;;;;16.34;64.21;102297.56;5046687;28;20016;-86
2022/09/20 11:20:26;;;;;;;;;;;;;;;16.25;65.49;102290.69;5046676;28;19927;-86
2022/09/20 11:23:04;;;;;;;;;;;;;;;16.35;66.63;102291.06;5047669;28;19924;-87
2022/09/20 11:25:33;;;;;;;;;;;;;;;16.33;66.03;102298.66;5046926;28;20328;-87
2022/09/20 11:28:10;;;;;;;;;;;;;;;16.19;68.38;102303.28;5027009;28;19928;-87
2022/09/20 11:30:40;;;;;;;;;;;;;;;16.02;67.47;102302.91;5046688;28;19924;-86
2022/09/20 11:33:26;;;;;;;;;;;;;;;15.94;66.94;102307.75;5046380;28;19913;-86
2022/09/20 11:35:54;;;;;;;;;;;;;;;15.85;65.43;102305.25;5046218;28;20267;-86
2022/09/20 11:38:25;;;;;;;;;;;;;;;15.76;66.62;102316.56;5047794;28;19951;-86
2022/09/20 11:41:13;;;;;;;;;;;;;;;15.57;67.28;102310.06;5046287;28;19979;-87
2022/09/20 11:43:41;;;;;;;;;;;;;;;15.46;67.55;102311.50;5040971;28;20500;-87
2022/09/20 11:46:08;;;;;;;;;;;;;;;15.35;68.89;102305.63;5045869;28;20370;-88
2022/09/20 11:48:37;;;;;;;;;;;;;;;15.40;68.27;102315.09;5050996;28;20552;-88
2022/09/20 11:51:03;;;;;;;;;;;;;;;15.35;68.25;102316.56;5050179;28;19932;-87
2022/09/20 11:53:47;;;;;;;;;;;;;;;15.34;68.86;102314.03;5050679;28;20343;-86
2022/09/20 11:56:23;;;;;;;;;;;;;;;15.36;69.17;102314.66;5050059;28;19928;-87
2022/09/20 11:58:50;;;;;;;;;;;;;;;15.35;69.01;102312.97;5050396;28;20280;-87
2022/09/20 12:01:24;;;;;;;;;;;;;;;15.28;69.16;102307.50;5049838;28;19976;-86
2022/09/20 12:03:52;;;;;;;;;;;;;;;15.25;69.58;102318.84;5050850;28;19924;-86
2022/09/20 12:06:25;;;;;;;;;;;;;;;15.26;69.10;102311.47;5049239;28;19931;-85
2022/09/20 12:08:51;;;;;;;;;;;;;;;15.18;68.20;102312.53;5050486;28;19928;-85
2022/09/20 12:11:27;;;;;;;;;;;;;;;15.14;65.85;102314.00;5049924;28;19920;-85
2022/09/20 12:13:58;;;;;;;;;;;;;;;15.08;65.96;102309.34;5048471;28;20015;-86
2022/09/20 12:16:40;;;;;;;;;;;;;;;15.08;67.18;102306.63;5048114;28;19978;-86
2022/09/20 12:19:08;;;;;;;;;;;;;;;15.12;65.92;102302.44;5049933;28;19916;-85
2022/09/20 12:21:52;;;;;;;;;;;;;;;15.16;67.19;102300.97;5049281;28;19981;-85
2022/09/20 12:24:18;;;;;;;;;;;;;;;15.26;68.10;102304.16;5050395;28;19923;-86
2022/09/20 12:26:44;;;;;;;;;;;;;;;15.40;68.79;102305.00;5048803;28;20391;-85
2022/09/20 12:29:25;;;;;;;;;;;;;;;15.42;67.69;102302.91;5050381;28;19928;-84
2022/09/20 12:32:00;;;;;;;;;;;;;;;15.52;67.72;102297.88;5050903;28;20730;-85
2022/09/20 12:34:25;;;;;;;;;;;;;;;15.56;68.11;102294.69;5050763;28;19998;-87
2022/09/20 12:36:54;;;;;;;;;;;;;;;15.62;65.86;102291.97;5050496;28;20023;-89
2022/09/20 12:39:30;;;;;;;;;;;;;;;15.64;66.85;102294.50;5050032;28;19930;-86
2022/09/20 12:41:57;;;;;;;;;;;;;;;15.70;66.19;102291.75;5051250;28;19927;-86
2022/09/20 12:44:48;;;;;;;;;;;;;;;15.67;65.18;102300.38;5050799;28;19959;-86
2022/09/20 12:47:17;;;;;;;;;;;;;;;15.62;65.57;102286.50;5050664;28;19919;-85
2022/09/20 12:55:32;;;;;;;;;;;;;;;15.35;65.58;102286.53;5050499;28;21192;-86
2022/09/20 12:58:06;;;;;;;;;;;;;;;15.39;65.30;102284.19;5049481;28;20023;-86
2022/09/20 13:00:39;;;;;;;;;;;;;;;15.28;63.78;102282.91;5048229;28;19960;-85
2022/09/20 13:03:13;;;;;;;;;;;;;;;15.31;62.68;102282.53;5050617;28;19920;-86